Time;durP1;ratioP1;P1;durP2;ratioP2;P2;SDS_P1;SDS_P2;PMS_P1;PMS_P2;Temp;Humidity;BMP_temperature;BMP_pressure;BME280_temperature;BME280_humidity;BME280_pressure;Samples;Min_cycle;Max_cycle;Signal;HPM_P1;HPM_P2
2023/06/03 00:01:50;;;;;;;11.93;4.97;;;9.00;99.90;9.80;94157.00;;;;7402800;19;20212;-88
2023/06/03 00:04:30;;;;;;;18.53;5.90;;;8.90;99.90;9.90;94163.00;;;;7401691;19;20149;-89
2023/06/03 00:06:57;;;;;;;10.95;4.68;;;8.90;99.90;9.90;94160.00;;;;7403020;19;20132;-89
2023/06/03 00:09:31;;;;;;;11.43;4.90;;;8.90;99.90;9.80;94177.00;;;;7404823;19;20141;-88
2023/06/03 00:11:58;;;;;;;11.30;5.15;;;8.80;99.90;9.80;94140.00;;;;7402587;19;20161;-90
2023/06/03 00:14:26;;;;;;;11.13;4.60;;;8.80;99.90;9.80;94137.00;;;;7400456;19;20185;-88
2023/06/03 00:16:59;;;;;;;10.20;5.23;;;8.80;99.90;9.70;94165.00;;;;7403045;19;20184;-90
2023/06/03 00:19:33;;;;;;;11.65;5.03;;;8.80;99.90;9.70;94153.00;;;;7402719;19;20148;-90
2023/06/03 00:22:08;;;;;;;12.80;5.73;;;8.70;99.90;9.60;94150.00;;;;7401587;19;20144;-90
2023/06/03 00:24:38;;;;;;;6.67;4.43;;;8.70;99.90;9.50;94150.00;;;;7401738;19;20132;-89
2023/06/03 00:27:11;;;;;;;8.53;4.80;;;8.60;99.90;9.50;94120.00;;;;7402245;19;20148;-88
2023/06/03 00:29:47;;;;;;;8.80;4.77;;;8.60;99.90;9.70;94122.00;;;;7402403;19;20634;-89
2023/06/03 00:32:21;;;;;;;12.27;5.60;;;8.60;1.00;9.70;94160.00;;;;7403046;19;20146;-88
2023/06/03 00:34:48;;;;;;;10.53;5.40;;;8.60;1.00;9.70;94120.00;;;;7399272;19;20145;-88
2023/06/03 00:37:22;;;;;;;13.87;5.23;;;8.60;1.00;9.60;94180.00;;;;7402460;19;20183;-89
2023/06/03 00:39:50;;;;;;;8.33;4.80;;;8.50;99.90;9.50;94095.00;;;;7400340;19;20483;-89
2023/06/03 00:42:24;;;;;;;12.33;5.40;;;8.50;1.00;9.60;94160.00;;;;7401135;19;20599;-89
2023/06/03 00:44:59;;;;;;;10.37;4.80;;;8.50;1.00;9.50;94126.00;;;;7401311;19;20125;-89
2023/06/03 00:47:33;;;;;;;12.10;5.93;;;8.50;1.00;9.50;94141.00;;;;7401230;19;20640;-89
2023/06/03 00:50:02;;;;;;;9.47;5.33;;;8.40;1.00;9.20;94149.00;;;;7402860;19;20150;-89
2023/06/03 00:52:38;;;;;;;10.23;5.33;;;8.40;1.00;9.40;94155.00;;;;7400805;19;20164;-89
2023/06/03 00:55:06;;;;;;;9.93;5.30;;;8.30;1.00;9.30;94133.00;;;;7400051;19;20160;-89
2023/06/03 00:57:40;;;;;;;14.20;5.20;;;8.30;1.00;9.20;94135.00;;;;7401599;19;20148;-88
2023/06/03 01:00:19;;;;;;;20.73;6.03;;;8.20;1.00;9.00;94179.00;;;;7401629;19;20595;-89
2023/06/03 01:02:55;;;;;;;21.00;5.07;;;8.20;1.00;9.10;94127.00;;;;7402510;19;20156;-89
2023/06/03 01:05:30;;;;;;;14.93;5.13;;;8.10;1.00;9.10;94089.00;;;;7401294;19;20124;-89
2023/06/03 01:08:15;;;;;;;14.27;5.57;;;8.10;1.00;9.10;94163.00;;;;7400362;19;20137;-88
2023/06/03 01:11:25;;;;;;;16.57;5.90;;;8.10;1.00;9.20;94163.00;;;;7399908;19;20157;-89
2023/06/03 01:14:17;;;;;;;13.40;5.13;;;8.10;1.00;9.30;94123.00;;;;7398534;19;20551;-89
2023/06/03 01:16:53;;;;;;;16.60;5.43;;;8.30;1.00;9.20;94118.00;;;;7399062;19;20615;-89
2023/06/03 01:19:50;;;;;;;13.63;5.00;;;8.30;1.00;9.20;94111.00;;;;7399677;19;20144;-88
2023/06/03 01:22:26;;;;;;;7.67;4.60;;;8.30;1.00;9.10;94161.00;;;;7400106;19;20587;-88
2023/06/03 01:25:10;;;;;;;13.67;4.90;;;8.30;1.00;9.20;94152.00;;;;7401205;19;20133;-88
2023/06/03 01:27:52;;;;;;;11.60;4.30;;;8.20;1.00;9.10;94101.00;;;;7400355;19;20642;-89
2023/06/03 01:30:21;;;;;;;11.57;4.93;;;8.20;1.00;9.20;94047.00;;;;7402181;19;20628;-89
2023/06/03 01:32:55;;;;;;;22.10;6.10;;;8.20;1.00;9.10;94097.00;;;;7400625;19;20140;-89
2023/06/03 01:35:24;;;;;;;11.57;5.50;;;8.20;1.00;9.00;94117.00;;;;7400689;19;20146;-89
2023/06/03 01:37:58;;;;;;;12.83;4.80;;;8.10;1.00;9.10;94125.00;;;;7400889;19;20176;-90
2023/06/03 01:40:35;;;;;;;12.30;5.03;;;8.00;1.00;9.00;94126.00;;;;7399829;19;20584;-88
2023/06/03 01:43:09;;;;;;;14.50;5.50;;;8.00;1.00;9.30;94138.00;;;;7401859;19;20195;-88
2023/06/03 01:45:43;;;;;;;16.67;5.13;;;8.00;1.00;9.30;94165.00;;;;7399793;19;20149;-88
2023/06/03 01:48:18;;;;;;;10.10;5.13;;;8.10;1.00;9.30;94100.00;;;;7399262;19;20591;-88
2023/06/03 01:50:51;;;;;;;10.57;4.70;;;8.20;1.00;9.30;94133.00;;;;7401061;19;20620;-88
2023/06/03 01:53:20;;;;;;;16.93;5.17;;;8.20;1.00;9.20;94157.00;;;;7399895;19;20643;-89
2023/06/03 01:55:48;;;;;;;12.77;5.10;;;8.10;1.00;9.20;94096.00;;;;7401479;19;20149;-88
2023/06/03 01:58:23;;;;;;;14.83;5.13;;;8.20;1.00;9.20;94151.00;;;;7401678;19;20579;-88
2023/06/03 02:00:56;;;;;;;11.20;4.73;;;8.20;1.00;9.10;94080.00;;;;7399671;19;20133;-88
2023/06/03 02:03:36;;;;;;;8.90;5.07;;;8.10;1.00;9.10;94105.00;;;;7398617;19;20615;-88
2023/06/03 02:06:13;;;;;;;11.67;5.23;;;8.00;1.00;9.10;94087.00;;;;7399630;19;20129;-88
2023/06/03 02:08:41;;;;;;;13.43;4.80;;;8.00;1.00;9.00;94109.00;;;;7399469;19;20125;-88
2023/06/03 02:11:15;;;;;;;11.03;4.70;;;8.00;1.00;8.90;94132.00;;;;7401428;19;20124;-88
2023/06/03 02:13:43;;;;;;;14.67;4.80;;;7.90;1.00;8.90;94141.00;;;;7397660;19;20652;-89
2023/06/03 02:16:16;;;;;;;11.40;5.43;;;7.80;1.00;8.80;94157.00;;;;7400515;19;20129;-89
2023/06/03 02:18:43;;;;;;;12.63;4.70;;;7.80;15.00;8.80;94122.00;;;;7398228;19;20147;-89
2023/06/03 02:21:17;;;;;;;17.13;5.73;;;7.80;62.40;8.90;94125.00;;;;7397965;19;20155;-88
2023/06/03 02:23:47;;;;;;;9.13;5.03;;;7.80;99.90;9.00;94108.00;;;;7397475;19;20521;-89
2023/06/03 02:26:21;;;;;;;10.97;5.10;;;7.90;99.90;9.10;94000.00;;;;7398539;19;20567;-89
2023/06/03 02:28:56;;;;;;;9.70;4.60;;;7.90;79.40;9.00;94094.00;;;;7399333;19;20568;-89
2023/06/03 02:31:30;;;;;;;12.97;5.40;;;7.90;66.50;9.10;94083.00;;;;7396324;19;20144;-89
2023/06/03 02:34:04;;;;;;;8.23;4.43;;;7.90;75.10;9.00;94135.00;;;;7396215;19;20137;-90
2023/06/03 02:36:42;;;;;;;12.50;5.30;;;7.90;41.10;9.00;94099.00;;;;7398515;19;20113;-89
2023/06/03 02:39:18;;;;;;;10.47;4.87;;;7.90;47.90;9.00;94142.00;;;;7397566;19;20155;-89
2023/06/03 02:41:53;;;;;;;14.93;5.17;;;7.90;49.40;9.10;94123.00;;;;7397006;19;20148;-88
2023/06/03 02:44:24;;;;;;;12.23;5.17;;;7.90;27.10;9.10;94091.00;;;;7397399;19;20140;-87
2023/06/03 02:46:58;;;;;;;10.73;5.53;;;7.90;42.80;9.10;94051.00;;;;7397209;19;20627;-89
2023/06/03 02:49:32;;;;;;;17.40;5.57;;;7.90;44.30;9.10;94122.00;;;;7396493;19;20587;-88
2023/06/03 02:52:00;;;;;;;14.47;5.60;;;7.90;49.30;9.00;94101.00;;;;7396770;19;20145;-88
2023/06/03 02:54:33;;;;;;;17.40;5.27;;;7.90;45.70;8.80;94122.00;;;;7396683;19;20157;-89
2023/06/03 02:57:03;;;;;;;12.13;5.33;;;7.90;19.70;8.70;94134.00;;;;7397428;19;20140;-89
2023/06/03 02:59:36;;;;;;;17.33;5.57;;;7.80;28.50;8.70;94065.00;;;;7397277;19;20133;-89
2023/06/03 03:02:11;;;;;;;10.53;5.17;;;7.70;97.40;8.70;94094.00;;;;7395661;19;20527;-89
2023/06/03 03:04:51;;;;;;;19.57;6.80;;;7.70;99.90;8.70;94111.00;;;;7395278;19;20157;-88
2023/06/03 03:07:20;;;;;;;10.80;5.43;;;7.70;99.90;8.50;94136.00;;;;7395829;19;20145;-89
2023/06/03 03:09:54;;;;;;;15.47;5.37;;;7.60;99.90;8.70;94110.00;;;;7397629;19;20134;-89
2023/06/03 03:12:28;;;;;;;9.97;5.03;;;7.60;99.90;8.70;94160.00;;;;7393906;19;20161;-90
2023/06/03 03:15:06;;;;;;;13.97;6.10;;;7.60;99.90;8.80;94152.00;;;;7399258;19;20200;-89
2023/06/03 03:17:35;;;;;;;13.93;5.80;;;7.60;99.90;8.90;94050.00;;;;7402310;19;20148;-89
2023/06/03 03:20:12;;;;;;;16.17;5.73;;;7.60;99.90;8.80;94035.00;;;;7402546;19;20135;-88
2023/06/03 03:22:46;;;;;;;10.27;5.50;;;7.60;99.90;8.80;94144.00;;;;7400815;19;21228;-89
2023/06/03 03:25:21;;;;;;;12.57;5.20;;;7.60;99.90;8.90;94085.00;;;;7402181;19;20184;-89
2023/06/03 03:27:55;;;;;;;15.57;6.43;;;7.60;99.90;8.80;94132.00;;;;7402512;19;20148;-89
2023/06/03 03:30:30;;;;;;;12.20;5.60;;;7.60;99.90;8.70;94106.00;;;;7403281;19;20576;-89
2023/06/03 03:33:05;;;;;;;14.00;5.70;;;7.60;99.90;8.70;94118.00;;;;7400014;19;20466;-88
2023/06/03 03:35:39;;;;;;;9.97;5.80;;;7.60;99.90;8.80;94122.00;;;;7398735;19;20169;-88
2023/06/03 03:38:14;;;;;;;11.67;5.90;;;7.60;99.90;8.70;94108.00;;;;7403300;19;20129;-89
2023/06/03 03:40:43;;;;;;;14.17;5.97;;;7.60;99.90;8.70;94156.00;;;;7403035;19;20133;-88
2023/06/03 03:43:19;;;;;;;12.93;6.30;;;7.60;99.90;8.60;94110.00;;;;7398809;19;20163;-89
2023/06/03 03:45:46;;;;;;;11.50;5.00;;;7.60;99.90;8.50;94061.00;;;;7400367;19;20136;-88
2023/06/03 03:48:23;;;;;;;15.20;7.27;;;7.60;99.90;8.80;94089.00;;;;7399627;19;20153;-88
2023/06/03 03:50:57;;;;;;;13.93;5.77;;;7.60;99.90;8.80;94088.00;;;;7399690;19;20121;-89
2023/06/03 03:53:35;;;;;;;13.37;6.10;;;7.60;99.90;8.70;94044.00;;;;7396965;19;20196;-89
2023/06/03 03:56:04;;;;;;;11.13;4.67;;;7.60;99.90;8.80;94151.00;;;;7398038;19;20576;-89
2023/06/03 03:58:41;;;;;;;12.03;5.20;;;7.70;99.90;8.80;94073.00;;;;7400702;19;20135;-89
2023/06/03 04:01:23;;;;;;;10.90;5.20;;;7.60;99.90;8.90;94146.00;;;;7399966;19;20144;-89
2023/06/03 04:03:57;;;;;;;14.63;4.77;;;7.70;99.90;9.00;94139.00;;;;7397045;19;20149;-89
2023/06/03 04:06:37;;;;;;;11.90;5.03;;;7.80;99.90;9.00;94135.00;;;;7400669;19;20124;-88
2023/06/03 04:09:12;;;;;;;8.70;5.17;;;7.80;99.90;9.00;94110.00;;;;7400912;19;20608;-87
2023/06/03 04:11:43;;;;;;;11.77;5.43;;;7.80;99.90;9.10;94123.00;;;;7398911;19;20656;-87
2023/06/03 04:14:25;;;;;;;16.67;5.43;;;7.90;99.90;9.20;94154.00;;;;7398338;19;20456;-90
2023/06/03 04:17:02;;;;;;;15.70;5.43;;;8.00;99.90;9.20;94110.00;;;;7399513;19;20145;-87
2023/06/03 04:19:41;;;;;;;11.73;5.00;;;8.00;99.90;9.30;94078.00;;;;7398661;19;20129;-88
2023/06/03 04:22:23;;;;;;;11.83;5.13;;;8.10;99.90;9.40;94138.00;;;;7399027;19;20140;-87
2023/06/03 04:25:09;;;;;;;12.43;5.37;;;8.20;99.90;9.40;94082.00;;;;7397404;19;20117;-89
2023/06/03 04:27:42;;;;;;;9.83;4.70;;;8.30;99.90;9.40;94111.00;;;;7400007;19;20155;-90
2023/06/03 04:30:16;;;;;;;11.53;5.13;;;8.30;99.90;9.60;94107.00;;;;7398617;19;20131;-90
2023/06/03 04:32:50;;;;;;;9.73;4.97;;;8.30;99.90;9.70;94058.00;;;;7399342;19;20249;-88
2023/06/03 04:35:24;;;;;;;33.97;16.57;;;8.40;99.90;9.70;94120.00;;;;7396340;19;20145;-91
2023/06/03 04:37:52;;;;;;;46.27;25.07;;;8.50;99.90;9.80;94108.00;;;;7401394;19;20155;-87
2023/06/03 04:40:30;;;;;;;38.80;20.13;;;8.60;99.90;10.00;94112.00;;;;7400927;19;20159;-88
2023/06/03 04:43:05;;;;;;;17.90;8.68;;;8.70;99.90;10.00;94115.00;;;;7397287;19;20158;-88
2023/06/03 04:45:33;;;;;;;28.13;14.93;;;8.80;99.90;10.10;94068.00;;;;7400863;19;20148;-89
2023/06/03 04:48:07;;;;;;;35.67;15.00;;;8.90;99.90;10.30;94070.00;;;;7398111;19;20127;-88
2023/06/03 04:50:35;;;;;;;16.67;7.90;;;9.00;91.70;10.50;94151.00;;;;7400368;19;20129;-89
2023/06/03 04:53:13;;;;;;;14.53;6.30;;;9.10;63.60;10.60;94102.00;;;;7400616;19;20153;-88
2023/06/03 04:55:44;;;;;;;10.70;5.80;;;9.30;11.40;10.70;94070.00;;;;7399312;19;20137;-88
2023/06/03 04:58:18;;;;;;;13.23;6.25;;;9.40;1.00;10.70;94088.00;;;;7403123;19;20216;-88
2023/06/03 05:00:48;;;;;;;20.67;12.43;;;9.60;1.00;11.00;94087.00;;;;7400067;19;20109;-90
2023/06/03 05:03:22;;;;;;;30.10;14.50;;;9.70;1.00;11.10;94134.00;;;;7401402;19;20531;-88
2023/06/03 05:06:10;;;;;;;16.63;7.82;;;9.90;1.00;11.30;94098.00;;;;7403032;19;20132;-89
2023/06/03 05:08:40;;;;;;;10.90;5.90;;;10.00;1.00;11.40;94091.00;;;;7404797;19;20160;-88
2023/06/03 05:11:17;;;;;;;14.70;7.15;;;10.10;1.00;11.50;94092.00;;;;7398336;19;20136;-90
2023/06/03 05:13:45;;;;;;;12.98;5.35;;;10.30;1.00;11.70;94101.00;;;;7397366;19;20592;-89
2023/06/03 05:16:20;;;;;;;10.50;4.82;;;10.40;99.90;11.80;94071.00;;;;7396696;19;20141;-91
2023/06/03 05:18:47;;;;;;;8.60;4.20;;;10.60;99.90;12.00;94083.00;;;;7387836;19;20161;-89
2023/06/03 05:21:21;;;;;;;11.00;4.60;;;10.70;99.90;12.00;94083.00;;;;7394083;19;20209;-89
2023/06/03 05:23:49;;;;;;;10.57;4.15;;;10.90;99.90;12.00;94044.00;;;;7397297;19;20620;-87
2023/06/03 05:26:26;;;;;;;15.25;5.22;;;11.00;99.90;12.20;94065.00;;;;7398418;19;20159;-89
2023/06/03 05:28:55;;;;;;;10.57;4.40;;;11.10;99.90;12.40;94128.00;;;;7397919;19;20141;-90
2023/06/03 05:31:32;;;;;;;12.77;4.95;;;11.20;99.90;12.30;94087.00;;;;7398174;19;20132;-89
2023/06/03 05:34:00;;;;;;;8.80;4.22;;;11.30;99.90;12.50;94085.00;;;;7398910;19;20640;-91
2023/06/03 05:36:35;;;;;;;12.05;5.03;;;11.40;99.90;12.50;94101.00;;;;7392984;19;20592;-89
2023/06/03 05:39:12;;;;;;;10.43;4.68;;;11.50;99.90;12.50;94108.00;;;;7395760;19;20141;-89
2023/06/03 05:41:49;;;;;;;12.10;4.50;;;11.60;99.90;12.70;94106.00;;;;7398396;19;20153;-89
2023/06/03 05:44:24;;;;;;;15.75;5.53;;;11.80;99.90;12.70;94129.00;;;;7397343;19;20192;-89
2023/06/03 05:46:59;;;;;;;11.50;6.22;;;11.90;99.90;13.00;94101.00;;;;7398263;19;20144;-88
2023/06/03 05:49:33;;;;;;;10.25;4.72;;;12.00;99.90;13.10;94100.00;;;;7401564;19;20134;-89
2023/06/03 05:52:08;;;;;;;10.43;4.50;;;12.30;99.90;13.50;94116.00;;;;7398883;19;20173;-89
2023/06/03 05:54:35;;;;;;;9.57;4.88;;;12.40;99.90;13.50;94150.00;;;;7399721;19;20141;-89
2023/06/03 05:57:10;;;;;;;7.78;4.63;;;12.80;99.90;13.90;94099.00;;;;7396413;19;20489;-89
2023/06/03 05:59:38;;;;;;;12.82;4.47;;;13.20;99.90;14.30;94155.00;;;;7396504;19;20149;-90
2023/06/03 06:02:11;;;;;;;7.43;4.45;;;13.60;99.90;14.30;94067.00;;;;7393005;19;20173;-89
2023/06/03 06:04:53;;;;;;;11.35;4.22;;;14.00;8.00;14.60;94125.00;;;;7394093;19;20152;-89
2023/06/03 06:07:27;;;;;;;8.43;4.25;;;14.30;1.00;14.80;94129.00;;;;7394160;19;20128;-89
2023/06/03 06:10:01;;;;;;;11.38;4.70;;;14.40;99.90;14.40;94131.00;;;;7392830;19;20149;-89
2023/06/03 06:12:29;;;;;;;8.93;4.10;;;14.40;99.90;15.10;94128.00;;;;7389581;19;20140;-89
2023/06/03 06:15:07;;;;;;;10.30;4.05;;;14.60;1.00;15.20;94167.00;;;;7389431;19;20152;-88
2023/06/03 06:17:43;;;;;;;11.65;4.35;;;14.80;1.00;15.30;94160.00;;;;7389503;19;20159;-88
2023/06/03 06:20:18;;;;;;;11.10;4.35;;;14.80;1.00;15.70;94116.00;;;;7387704;19;20128;-88
2023/06/03 06:23:00;;;;;;;9.65;4.63;;;14.90;1.00;16.20;94029.00;;;;7404957;19;20140;-96
2023/06/03 06:25:35;;;;;;;10.20;4.25;;;15.00;1.00;16.50;94031.00;;;;7409489;19;20136;-96
2023/06/03 06:28:24;;;;;;;10.77;4.25;;;15.10;1.00;16.70;94119.00;;;;7406723;19;20144;-96
2023/06/03 06:31:06;;;;;;;9.88;4.93;;;15.30;1.00;17.10;94147.00;;;;7403505;19;20176;-94
2023/06/03 06:33:47;;;;;;;11.25;4.32;;;15.50;1.00;17.00;94140.00;;;;7406785;19;20153;-92
2023/06/03 06:36:46;;;;;;;8.82;3.95;;;15.80;1.00;18.10;94145.00;;;;7398420;19;20145;-93
2023/06/03 06:39:33;;;;;;;8.68;4.10;;;16.00;1.00;18.70;94124.00;;;;7393993;19;20141;-92
2023/06/03 06:42:31;;;;;;;9.27;4.05;;;16.10;1.00;18.80;94129.00;;;;7396530;19;20148;-92
2023/06/03 06:45:30;;;;;;;9.32;4.53;;;16.20;1.00;18.90;94131.00;;;;7397338;19;20144;-93
2023/06/03 06:48:08;;;;;;;11.18;4.03;;;16.00;1.00;18.80;94138.00;;;;7395511;19;20169;-92
2023/06/03 06:50:59;;;;;;;7.15;3.88;;;16.00;1.00;18.70;94103.00;;;;7396317;19;20204;-92
2023/06/03 06:53:35;;;;;;;8.50;4.18;;;16.00;1.00;18.60;94123.00;;;;7393616;19;20165;-89
2023/06/03 06:56:07;;;;;;;9.23;4.47;;;16.00;1.00;18.30;94152.00;;;;7393599;19;20138;-87
2023/06/03 06:58:42;;;;;;;12.07;4.65;;;16.10;99.90;18.40;94146.00;;;;7390662;19;20585;-90
2023/06/03 07:01:16;;;;;;;12.45;4.80;;;16.00;99.90;18.20;94139.00;;;;7386177;19;20160;-85
2023/06/03 07:03:57;;;;;;;11.68;4.20;;;16.10;99.90;18.00;94137.00;;;;7379257;19;20168;-85
2023/06/03 07:06:25;;;;;;;11.77;4.90;;;16.20;99.90;18.10;94144.00;;;;7386845;19;20619;-87
2023/06/03 07:09:00;;;;;;;9.52;4.53;;;16.20;99.90;17.80;94124.00;;;;7390545;19;20131;-90
2023/06/03 07:11:44;;;;;;;9.68;4.35;;;16.20;99.90;17.60;94113.00;;;;7385867;19;23182;-87
2023/06/03 07:14:18;;;;;;;6.18;4.13;;;16.30;99.90;17.70;94121.00;;;;7388012;19;20498;-88
2023/06/03 07:16:51;;;;;;;12.32;4.82;;;16.40;99.90;17.80;94105.00;;;;7382567;19;20514;-87
2023/06/03 07:19:19;;;;;;;6.43;4.82;;;16.30;99.90;18.00;94145.00;;;;7382446;19;20153;-87
2023/06/03 07:21:53;;;;;;;10.15;4.93;;;16.30;99.90;17.90;94108.00;;;;7383870;19;20156;-88
2023/06/03 07:24:28;;;;;;;9.70;4.43;;;16.40;99.90;18.00;94115.00;;;;7384089;19;20176;-91
2023/06/03 07:27:07;;;;;;;12.30;4.35;;;16.50;99.90;18.10;94150.00;;;;7387934;19;20158;-90
2023/06/03 07:29:42;;;;;;;13.27;4.55;;;16.60;99.90;17.90;94123.00;;;;7392866;19;20160;-91
2023/06/03 07:32:21;;;;;;;6.97;4.40;;;16.70;99.90;18.50;94176.00;;;;7389355;19;20137;-94
2023/06/03 07:34:56;;;;;;;9.65;5.00;;;16.80;99.90;18.30;94147.00;;;;7383611;19;20148;-89
2023/06/03 07:37:32;;;;;;;12.65;5.03;;;17.00;99.90;18.80;94173.00;;;;7384104;19;20552;-89
2023/06/03 07:40:15;;;;;;;8.70;4.80;;;17.00;99.90;18.70;94076.00;;;;7386267;19;20321;-92
2023/06/03 07:42:50;;;;;;;12.40;5.45;;;17.30;99.90;19.00;94121.00;;;;7388555;19;20212;-91
2023/06/03 07:45:17;;;;;;;8.98;5.57;;;17.50;99.90;18.60;94117.00;;;;7387327;19;20218;-93
2023/06/03 07:47:56;;;;;;;10.07;4.70;;;17.60;99.90;18.60;94117.00;;;;7386006;19;20490;-91
2023/06/03 07:50:26;;;;;;;10.98;5.40;;;17.80;99.90;18.40;94168.00;;;;7388503;19;20152;-92
2023/06/03 07:53:04;;;;;;;11.38;5.03;;;17.80;99.90;19.00;94144.00;;;;7385152;19;20172;-89
2023/06/03 07:55:44;;;;;;;8.45;5.07;;;17.70;99.90;18.90;94147.00;;;;7387257;19;20186;-91
2023/06/03 07:58:20;;;;;;;12.02;5.40;;;17.90;99.90;19.20;94113.00;;;;7384672;19;20136;-91
2023/06/03 08:00:54;;;;;;;8.55;5.32;;;17.90;99.90;19.10;94178.00;;;;7390849;19;20159;-93
2023/06/03 08:03:36;;;;;;;7.95;5.00;;;17.90;95.90;19.20;94128.00;;;;7396201;19;20657;-94
2023/06/03 08:06:18;;;;;;;9.45;4.53;;;18.10;51.90;19.60;94097.00;;;;7396199;19;20148;-94
2023/06/03 08:08:56;;;;;;;12.90;5.47;;;18.30;32.20;19.80;94109.00;;;;7392476;19;20604;-93
2023/06/03 08:11:25;;;;;;;12.30;5.35;;;18.30;45.20;19.70;94158.00;;;;7393774;19;20121;-91
2023/06/03 08:14:00;;;;;;;10.05;5.53;;;18.30;30.80;19.50;94145.00;;;;7393859;19;20591;-92
2023/06/03 08:16:27;;;;;;;12.85;5.88;;;18.40;1.00;19.50;94142.00;;;;7394195;19;20144;-94
2023/06/03 08:19:03;;;;;;;9.23;5.85;;;18.50;28.30;20.10;94190.00;;;;7395407;19;20574;-91
2023/06/03 08:21:39;;;;;;;7.20;4.55;;;18.60;1.80;19.70;94159.00;;;;7393938;19;20153;-91
2023/06/03 08:24:13;;;;;;;10.68;5.20;;;18.60;10.60;19.90;94182.00;;;;7390187;19;21263;-93
2023/06/03 08:26:49;;;;;;;11.35;5.82;;;18.90;1.00;20.00;94082.00;;;;7392502;19;20611;-91
2023/06/03 08:29:16;;;;;;;13.23;5.75;;;19.00;14.20;20.50;94123.00;;;;7391923;19;20141;-93
2023/06/03 08:31:44;;;;;;;14.30;9.65;;;19.20;4.60;20.60;94173.00;;;;7391997;19;20612;-90
2023/06/03 08:34:19;;;;;;;16.58;10.38;;;19.20;34.30;20.70;94152.00;;;;7388920;19;20148;-86
2023/06/03 08:36:46;;;;;;;16.45;8.93;;;19.40;16.80;21.10;94191.00;;;;7382524;19;20529;-86
2023/06/03 08:39:20;;;;;;;21.17;16.35;;;19.70;1.00;21.70;94189.00;;;;7383109;19;20145;-86
2023/06/03 08:41:58;;;;;;;25.40;17.65;;;19.70;1.00;21.80;94181.00;;;;7382413;19;20148;-86
2023/06/03 08:44:59;;;;;;;13.30;7.07;;;19.90;1.00;22.30;94124.00;;;;7380937;19;20132;-87
2023/06/03 08:48:16;;;;;;;10.15;5.40;;;20.10;28.10;22.40;94186.00;;;;7384165;19;20164;-88
2023/06/03 08:51:06;;;;;;;9.70;5.57;;;20.20;57.70;22.70;94106.00;;;;7383579;19;20228;-85
2023/06/03 08:53:50;;;;;;;12.32;5.57;;;20.30;80.20;23.00;94184.00;;;;7385085;19;20160;-84
2023/06/03 08:56:27;;;;;;;19.77;6.25;;;20.50;89.50;22.60;94183.00;;;;7383517;19;20173;-87
2023/06/03 08:59:04;;;;;;;8.80;5.65;;;20.50;82.30;22.80;94161.00;;;;7383731;19;20132;-88
2023/06/03 09:01:46;;;;;;;10.10;5.53;;;20.60;68.90;23.10;94181.00;;;;7386537;19;20215;-87
2023/06/03 09:04:19;;;;;;;9.13;5.18;;;20.80;92.00;23.10;94203.00;;;;7382564;19;20179;-84
2023/06/03 09:07:01;;;;;;;13.43;5.45;;;21.00;99.90;22.40;94205.00;;;;7382199;19;20128;-86
2023/06/03 09:09:37;;;;;;;9.98;5.35;;;21.20;99.90;23.30;94167.00;;;;7378089;19;20144;-84
2023/06/03 09:12:12;;;;;;;12.30;5.32;;;21.10;99.90;24.30;94189.00;;;;7384287;19;20148;-85
2023/06/03 09:14:48;;;;;;;13.02;4.70;;;21.40;54.80;24.30;94179.00;;;;7384365;19;20856;-85
2023/06/03 09:17:24;;;;;;;9.13;5.28;;;21.80;99.90;23.80;94184.00;;;;7383799;19;20155;-84
2023/06/03 09:20:01;;;;;;;9.43;5.60;;;21.80;1.00;23.00;94205.00;;;;7382707;19;20947;-85
2023/06/03 09:22:30;;;;;;;8.93;5.72;;;21.60;99.90;23.60;94215.00;;;;7385018;19;20146;-83
2023/06/03 09:25:06;;;;;;;12.60;5.93;;;21.90;99.90;23.30;94204.00;;;;7383551;19;20128;-83
2023/06/03 09:27:43;;;;;;;14.30;5.85;;;21.90;99.90;23.40;94214.00;;;;7383541;19;20144;-83
2023/06/03 09:30:11;;;;;;;18.42;6.25;;;22.20;99.90;23.80;94202.00;;;;7383495;19;20176;-84
2023/06/03 09:32:51;;;;;;;10.45;5.20;;;22.20;99.90;23.50;94200.00;;;;7380183;19;20153;-83
2023/06/03 09:35:26;;;;;;;11.70;5.53;;;22.60;99.90;22.90;94203.00;;;;7384486;19;20843;-84
2023/06/03 09:38:13;;;;;;;8.75;5.10;;;22.60;99.90;23.40;94200.00;;;;7383805;19;20484;-83
2023/06/03 09:40:42;;;;;;;9.95;4.97;;;22.60;99.90;23.80;94176.00;;;;7383546;19;20129;-83
2023/06/03 09:43:16;;;;;;;10.73;5.07;;;22.70;99.90;24.30;94207.00;;;;7383338;19;20516;-85
2023/06/03 09:45:50;;;;;;;7.32;4.78;;;23.10;99.90;24.50;94105.00;;;;7383816;19;20124;-85
2023/06/03 09:48:25;;;;;;;13.57;5.63;;;23.20;32.90;24.60;94163.00;;;;7383472;19;20151;-85
2023/06/03 09:51:01;;;;;;;10.35;5.75;;;23.20;1.00;25.00;94150.00;;;;7384603;19;20156;-84
2023/06/03 09:53:30;;;;;;;11.40;5.50;;;23.20;1.00;25.30;94183.00;;;;7384443;19;20156;-83
2023/06/03 09:56:26;;;;;;;11.80;5.78;;;23.30;1.00;25.10;94155.00;;;;7388690;19;20540;-84
2023/06/03 09:59:25;;;;;;;13.55;5.53;;;23.50;1.00;25.60;94227.00;;;;7388134;19;20460;-85
2023/06/03 10:02:11;;;;;;;9.27;5.40;;;23.40;1.00;25.20;94197.00;;;;7387628;19;20124;-86
2023/06/03 10:05:00;;;;;;;11.48;5.55;;;23.40;1.00;25.70;94147.00;;;;7387759;19;20184;-85
2023/06/03 10:08:04;;;;;;;8.23;5.78;;;23.40;1.00;26.20;94193.00;;;;7387038;19;20133;-86
2023/06/03 10:11:00;;;;;;;11.05;5.80;;;23.70;99.90;26.00;94193.00;;;;7384725;19;20160;-87
2023/06/03 10:13:34;;;;;;;11.60;5.78;;;23.80;99.90;25.20;94141.00;;;;7382713;19;20660;-84
2023/06/03 10:16:09;;;;;;;11.60;5.78;;;24.20;99.90;25.80;94198.00;;;;7382793;19;20256;-85
2023/06/03 10:18:45;;;;;;;13.20;6.30;;;24.50;99.90;25.10;94103.00;;;;7380480;19;20145;-84
2023/06/03 10:21:13;;;;;;;10.73;5.90;;;24.10;99.90;23.90;94231.00;;;;7378599;19;20144;-85
2023/06/03 10:23:42;;;;;;;7.90;5.28;;;23.50;99.90;23.60;94211.00;;;;7379287;19;20169;-83
2023/06/03 10:26:22;;;;;;;12.90;5.43;;;23.30;99.90;22.70;94213.00;;;;7380140;19;20213;-82
2023/06/03 10:28:51;;;;;;;12.02;5.30;;;22.70;1.00;23.30;94160.00;;;;7378609;19;20144;-84
2023/06/03 10:31:26;;;;;;;9.15;6.15;;;22.70;1.00;24.50;94212.00;;;;7376630;19;20148;-83
2023/06/03 10:33:54;;;;;;;10.63;5.55;;;22.80;1.00;25.00;94198.00;;;;7375801;19;20129;-83
2023/06/03 10:36:29;;;;;;;8.25;5.20;;;23.30;99.90;25.20;94192.00;;;;7378133;19;20132;-83
2023/06/03 10:39:06;;;;;;;10.95;6.10;;;23.80;99.90;25.20;94215.00;;;;7379455;19;20149;-82
2023/06/03 10:41:44;;;;;;;16.75;6.10;;;24.10;99.90;25.60;94178.00;;;;7377341;19;20148;-82
2023/06/03 10:44:23;;;;;;;12.55;5.88;;;24.40;99.90;26.60;94103.00;;;;7376012;19;20216;-85
2023/06/03 10:47:30;;;;;;;9.23;5.70;;;25.00;99.90;26.70;94200.00;;;;7379992;19;20144;-84
2023/06/03 10:50:19;;;;;;;11.18;5.55;;;25.40;99.90;26.30;94198.00;;;;7376126;19;20155;-84
2023/06/03 10:53:42;;;;;;;8.07;5.47;;;25.50;99.90;26.80;94198.00;;;;7377675;19;20176;-83
2023/06/03 10:56:38;;;;;;;10.13;5.45;;;26.00;99.90;27.90;94207.00;;;;7376178;19;20140;-83
2023/06/03 10:59:23;;;;;;;10.20;5.53;;;26.30;99.90;27.30;94158.00;;;;7379062;19;20235;-85
2023/06/03 11:02:02;;;;;;;8.07;5.30;;;26.20;99.90;27.30;94166.00;;;;7375906;19;20196;-86
2023/06/03 11:04:40;;;;;;;6.78;5.05;;;26.20;99.90;27.10;94177.00;;;;7377194;19;20232;-87
2023/06/03 11:07:42;;;;;;;15.57;5.30;;;26.10;99.90;26.90;94201.00;;;;7384664;19;20140;-90
2023/06/03 11:10:35;;;;;;;9.68;5.30;;;26.10;99.90;27.30;94196.00;;;;7384974;19;20124;-85
2023/06/03 11:13:38;;;;;;;8.38;5.25;;;25.90;99.90;26.50;94201.00;;;;7381088;19;20137;-88
2023/06/03 11:16:13;;;;;;;11.95;5.30;;;25.90;99.90;27.10;94157.00;;;;7384218;19;20174;-86
2023/06/03 11:19:31;;;;;;;10.75;5.50;;;26.00;99.90;26.80;94201.00;;;;7384767;19;20136;-88
2023/06/03 11:22:08;;;;;;;9.38;5.95;;;25.90;99.90;26.70;94194.00;;;;7384272;19;20162;-87
2023/06/03 11:24:44;;;;;;;9.75;5.72;;;26.00;99.90;27.30;94194.00;;;;7381222;19;20128;-86
2023/06/03 11:27:24;;;;;;;6.60;5.40;;;25.90;99.90;26.30;94229.00;;;;7385086;19;20133;-88
2023/06/03 11:30:00;;;;;;;12.10;5.35;;;25.80;99.90;25.90;94141.00;;;;7380333;19;20807;-87
2023/06/03 11:32:36;;;;;;;6.90;5.18;;;25.90;99.90;26.50;94214.00;;;;7380479;19;20125;-87
2023/06/03 11:35:05;;;;;;;8.50;5.88;;;26.00;99.90;27.00;94195.00;;;;7382595;19;20595;-87
2023/06/03 11:37:49;;;;;;;9.75;5.75;;;26.00;99.90;27.30;94198.00;;;;7389567;19;20139;-87
2023/06/03 11:40:20;;;;;;;8.00;5.57;;;26.10;99.90;27.70;94080.00;;;;7387850;19;20144;-86